createdAt,value
2022-11-12T00:01:09.118Z,37.47
2022-11-12T00:03:36.399Z,39.83
2022-11-12T00:06:03.977Z,41.50
2022-11-12T00:08:31.314Z,39.95
2022-11-12T00:10:58.600Z,36.25
2022-11-12T00:13:25.885Z,39.22
2022-11-12T00:15:53.459Z,35.03
2022-11-12T00:18:22.417Z,35.38
2022-11-12T00:20:49.735Z,36.10
2022-11-12T00:23:17.089Z,38.08
2022-11-12T00:25:44.435Z,44.88
2022-11-12T00:28:11.838Z,37.65
2022-11-12T00:30:41.092Z,43.05
2022-11-12T00:33:08.944Z,37.08
2022-11-12T00:35:36.619Z,35.65
2022-11-12T00:38:04.156Z,33.67
2022-11-12T00:40:31.622Z,44.13
2022-11-12T00:42:59.066Z,39.73
2022-11-12T00:45:26.553Z,35.37
2022-11-12T00:47:57.556Z,39.65
2022-11-12T00:50:25.248Z,38.78
2022-11-12T00:52:54.030Z,38.35
2022-11-12T00:55:21.895Z,39.15
2022-11-12T00:57:49.384Z,36.05
2022-11-12T01:00:21.569Z,38.28
2022-11-12T01:02:51.326Z,36.05
2022-11-12T01:05:20.281Z,39.03
2022-11-12T01:07:53.255Z,40.20
2022-11-12T01:10:23.534Z,41.60
2022-11-12T01:12:50.948Z,33.45
2022-11-12T01:15:18.424Z,37.15
2022-11-12T01:17:45.671Z,35.87
2022-11-12T01:20:13.157Z,37.67
2022-11-12T01:22:40.482Z,33.87
2022-11-12T01:25:09.312Z,37.47
2022-11-12T01:27:36.880Z,33.55
2022-11-12T01:30:05.197Z,38.87
2022-11-12T01:32:37.379Z,35.15
2022-11-12T01:35:05.190Z,33.80
2022-11-12T01:37:32.517Z,31.63
2022-11-12T01:39:59.887Z,31.03
2022-11-12T01:42:32.550Z,36.38
2022-11-12T01:44:59.959Z,36.40
2022-11-12T01:47:34.640Z,41.93
2022-11-12T01:50:26.733Z,35.92
2022-11-12T01:53:11.492Z,33.40
2022-11-12T01:55:38.979Z,35.55
2022-11-12T01:58:12.987Z,32.67
2022-11-12T02:00:42.450Z,35.20
2022-11-12T02:03:20.305Z,32.05
2022-11-12T02:05:59.316Z,33.00
2022-11-12T02:08:29.527Z,32.25
2022-11-12T02:10:56.798Z,36.45
2022-11-12T02:13:43.141Z,33.60
2022-11-12T02:16:11.286Z,30.90
2022-11-12T02:18:38.686Z,34.95
2022-11-12T02:21:09.683Z,31.08
2022-11-12T02:23:37.693Z,32.25
2022-11-12T02:26:05.441Z,29.77
2022-11-12T02:28:33.672Z,28.23
2022-11-12T02:31:01.035Z,28.00
2022-11-12T02:33:28.392Z,32.10
2022-11-12T02:35:55.643Z,29.08
2022-11-12T02:38:23.328Z,35.70
2022-11-12T02:40:52.175Z,28.92
2022-11-12T02:43:19.553Z,32.30
2022-11-12T02:45:46.955Z,28.92
2022-11-12T02:48:24.663Z,28.35
2022-11-12T02:50:52.281Z,26.17
2022-11-12T02:53:19.674Z,26.80
2022-11-12T02:55:47.091Z,28.95
2022-11-12T02:58:14.329Z,25.73
2022-11-12T03:00:41.580Z,28.17
2022-11-12T03:03:09.100Z,30.95
2022-11-12T03:05:36.774Z,26.42
2022-11-12T03:08:09.348Z,25.07
2022-11-12T03:10:40.778Z,25.70
2022-11-12T03:13:08.059Z,25.10
2022-11-12T03:15:35.256Z,24.85
2022-11-12T03:18:02.523Z,24.70
2022-11-12T03:20:30.315Z,22.65
2022-11-12T03:23:07.726Z,26.02
2022-11-12T03:25:36.450Z,26.53
2022-11-12T03:28:11.801Z,23.25
2022-11-12T03:30:42.843Z,21.33
2022-11-12T03:33:14.056Z,30.20
2022-11-12T03:35:42.170Z,23.65
2022-11-12T03:38:09.409Z,23.83
2022-11-12T03:40:36.788Z,29.25
2022-11-12T03:43:04.181Z,22.57
2022-11-12T03:45:31.624Z,23.90
2022-11-12T03:47:59.594Z,24.10
2022-11-12T03:50:30.245Z,25.77
2022-11-12T03:52:59.836Z,22.30
2022-11-12T03:55:30.241Z,18.60
2022-11-12T03:57:59.145Z,21.05
2022-11-12T04:00:28.770Z,17.55
2022-11-12T04:02:57.561Z,28.42
2022-11-12T04:05:45.487Z,25.35
2022-11-12T04:08:36.825Z,25.83
2022-11-12T04:11:15.217Z,27.17
2022-11-12T04:13:47.594Z,21.05
2022-11-12T04:16:38.310Z,28.40
2022-11-12T04:19:28.854Z,21.88
2022-11-12T04:22:09.838Z,24.23
2022-11-12T04:25:01.491Z,15.68
2022-11-12T04:27:35.514Z,22.17
2022-11-12T04:30:19.037Z,26.08
2022-11-12T04:32:55.325Z,24.25
2022-11-12T04:35:25.086Z,26.63
2022-11-12T04:37:52.953Z,28.58
2022-11-12T04:40:46.392Z,24.42
2022-11-12T04:43:35.932Z,26.65
2022-11-12T04:46:05.266Z,25.60
2022-11-12T04:48:32.560Z,22.50
2022-11-12T04:51:03.287Z,28.98
2022-11-12T04:53:31.353Z,30.88
2022-11-12T04:56:00.102Z,33.45
2022-11-12T04:58:27.661Z,28.60
2022-11-12T05:00:55.291Z,27.85
2022-11-12T05:03:22.622Z,26.52
2022-11-12T05:05:49.968Z,28.00
2022-11-12T05:08:17.223Z,23.30
2022-11-12T05:10:44.954Z,29.15
2022-11-12T05:13:12.220Z,30.60
2022-11-12T05:15:39.563Z,28.58
2022-11-12T05:18:06.915Z,32.58
2022-11-12T05:20:35.962Z,32.70
2022-11-12T05:23:07.063Z,35.53
2022-11-12T05:25:37.836Z,31.25
2022-11-12T05:28:07.095Z,36.72
2022-11-12T05:30:35.553Z,34.30
2022-11-12T05:33:02.861Z,30.65
2022-11-12T05:35:30.232Z,26.80
2022-11-12T05:37:57.578Z,35.27
2022-11-12T05:40:24.808Z,33.53
2022-11-12T05:42:52.055Z,28.67
2022-11-12T05:45:19.506Z,31.55
2022-11-12T05:47:47.943Z,32.30
2022-11-12T05:52:42.370Z,27.90
2022-11-12T05:55:10.064Z,32.55
2022-11-12T05:57:37.297Z,32.50
2022-11-12T06:00:05.180Z,30.08
2022-11-12T06:02:32.587Z,29.67
2022-11-12T06:04:59.945Z,33.03
2022-11-12T06:07:27.249Z,32.70
2022-11-12T06:09:54.480Z,35.83
2022-11-12T06:12:21.670Z,33.85
2022-11-12T06:14:48.931Z,32.33
2022-11-12T06:17:16.285Z,34.25
2022-11-12T06:19:43.587Z,34.10
2022-11-12T06:22:10.888Z,29.85
2022-11-12T06:24:38.217Z,34.25
2022-11-12T06:27:05.649Z,38.63
2022-11-12T06:29:32.956Z,36.70
2022-11-12T06:32:00.335Z,32.78
2022-11-12T06:34:27.703Z,28.23
2022-11-12T06:36:54.935Z,31.15
2022-11-12T06:39:22.119Z,32.70
2022-11-12T06:41:49.354Z,28.75
2022-11-12T06:44:20.906Z,31.77
2022-11-12T06:46:49.550Z,37.13
2022-11-12T06:49:19.104Z,31.88
2022-11-12T06:51:46.442Z,31.30
2022-11-12T06:54:13.744Z,32.67
2022-11-12T06:56:41.058Z,38.95
2022-11-12T06:59:10.570Z,32.25
2022-11-12T07:01:38.045Z,34.90
2022-11-12T07:04:05.726Z,34.38
2022-11-12T07:06:34.729Z,31.55
2022-11-12T07:09:02.471Z,38.80
2022-11-12T07:11:30.026Z,30.52
2022-11-12T07:13:57.405Z,28.75
2022-11-12T07:16:24.749Z,29.40
2022-11-12T07:18:52.023Z,30.88
2022-11-12T07:21:21.385Z,34.28
2022-11-12T07:23:48.736Z,31.35
2022-11-12T07:26:22.845Z,37.03
2022-11-12T07:28:52.392Z,36.42
2022-11-12T07:31:20.835Z,28.38
2022-11-12T07:33:49.115Z,28.45
2022-11-12T07:36:20.905Z,30.92
2022-11-12T07:38:51.790Z,31.20
2022-11-12T07:41:26.145Z,32.47
2022-11-12T07:43:54.145Z,30.10
2022-11-12T07:46:27.837Z,38.45
2022-11-12T07:48:56.295Z,29.45
2022-11-12T07:51:29.996Z,35.75
2022-11-12T07:54:00.039Z,30.75
2022-11-12T07:56:28.977Z,33.45
2022-11-12T07:58:56.353Z,31.25
2022-11-12T08:01:36.798Z,31.92
2022-11-12T08:04:10.440Z,32.92
2022-11-12T08:06:38.205Z,33.20
2022-11-12T08:09:08.749Z,36.15
2022-11-12T08:11:36.500Z,29.88
2022-11-12T08:14:04.268Z,32.65
2022-11-12T08:16:32.107Z,28.42
2022-11-12T08:19:00.346Z,27.48
2022-11-12T08:21:27.782Z,30.05
2022-11-12T08:23:55.110Z,29.00
2022-11-12T08:26:22.428Z,28.42
2022-11-12T08:28:49.932Z,37.03
2022-11-12T08:31:21.397Z,31.60
2022-11-12T08:33:49.086Z,32.38
2022-11-12T08:36:37.939Z,29.98
2022-11-12T08:39:05.558Z,28.35
2022-11-12T08:41:33.412Z,30.00
2022-11-12T08:44:07.169Z,34.92
2022-11-12T08:46:35.862Z,32.13
2022-11-12T08:49:03.322Z,29.73
2022-11-12T08:51:30.671Z,30.53
2022-11-12T08:53:58.282Z,31.98
2022-11-12T08:56:25.539Z,32.17
2022-11-12T08:58:52.938Z,29.42
2022-11-12T09:01:20.209Z,30.40
2022-11-12T09:03:49.648Z,31.38
2022-11-12T09:06:17.246Z,32.47
2022-11-12T09:08:44.773Z,37.20
2022-11-12T09:11:12.110Z,31.87
2022-11-12T09:13:39.517Z,37.13
2022-11-12T09:16:09.164Z,34.05
2022-11-12T09:18:37.495Z,33.25
2022-11-12T09:21:10.081Z,34.10
2022-11-12T09:23:38.410Z,48.40
2022-11-12T09:26:06.516Z,36.17
2022-11-12T09:28:33.926Z,34.92
2022-11-12T09:31:02.381Z,40.97
2022-11-12T09:36:03.199Z,97.38
2022-11-12T09:38:31.731Z,31.50
2022-11-12T09:41:18.777Z,38.47
2022-11-12T09:43:54.344Z,33.83
2022-11-12T09:46:29.847Z,35.95
2022-11-12T09:49:07.754Z,35.83
2022-11-12T09:51:43.052Z,37.63
2022-11-12T09:54:28.427Z,29.58
2022-11-12T09:56:56.086Z,35.53
2022-11-12T09:59:30.333Z,35.40
2022-11-12T10:02:42.048Z,37.45
2022-11-12T10:05:23.705Z,35.80
2022-11-12T10:08:34.136Z,32.63
2022-11-12T10:11:07.218Z,33.42
2022-11-12T10:14:25.654Z,36.67
2022-11-12T10:17:12.335Z,33.72
2022-11-12T10:19:48.669Z,33.90
2022-11-12T10:22:33.814Z,33.03
2022-11-12T10:25:19.490Z,34.10
2022-11-12T10:27:49.437Z,28.42
2022-11-12T10:30:20.869Z,29.98
2022-11-12T10:32:50.453Z,32.20
2022-11-12T10:35:23.869Z,27.90
2022-11-12T10:38:05.279Z,26.75
2022-11-12T10:40:39.434Z,32.70
2022-11-12T10:43:18.786Z,36.40
2022-11-12T10:45:48.662Z,27.25
2022-11-12T10:48:28.819Z,40.83
2022-11-12T10:50:56.474Z,25.65
2022-11-12T10:53:35.472Z,27.38
2022-11-12T10:56:30.235Z,31.17
2022-11-12T10:59:21.454Z,26.35
2022-11-12T11:01:59.089Z,26.88
2022-11-12T11:04:37.389Z,30.60
2022-11-12T11:07:23.148Z,29.10
2022-11-12T11:09:57.340Z,29.55
2022-11-12T11:12:32.861Z,27.02
2022-11-12T11:15:22.095Z,27.30
2022-11-12T11:17:49.679Z,25.23
2022-11-12T11:20:44.203Z,30.17
2022-11-12T11:23:28.606Z,32.33
2022-11-12T11:26:07.198Z,29.55
2022-11-12T11:32:12.818Z,24.43
2022-11-12T11:35:30.211Z,29.67
2022-11-12T11:38:10.286Z,27.90
2022-11-12T11:40:45.851Z,26.83
2022-11-12T11:43:18.827Z,26.98
2022-11-12T11:46:16.873Z,25.95
2022-11-12T11:49:10.178Z,25.73
2022-11-12T11:51:49.400Z,23.23
2022-11-12T11:54:44.471Z,25.27
2022-11-12T11:57:21.696Z,24.23
2022-11-12T12:00:10.554Z,25.75
2022-11-12T12:02:58.515Z,23.13
2022-11-12T12:06:13.804Z,28.42
2022-11-12T12:09:08.404Z,42.78
2022-11-12T12:11:58.422Z,25.35
2022-11-12T12:15:05.727Z,26.52
2022-11-12T12:18:10.095Z,24.55
2022-11-12T12:21:02.286Z,35.13
2022-11-12T12:23:45.222Z,33.60
2022-11-12T12:26:26.944Z,25.05
2022-11-12T12:29:12.330Z,25.50
2022-11-12T12:31:49.569Z,29.60
2022-11-12T12:34:54.600Z,24.35
2022-11-12T12:38:21.812Z,28.08
2022-11-12T12:41:30.850Z,27.60
2022-11-12T12:44:09.235Z,26.40
2022-11-12T12:49:34.491Z,28.40
2022-11-12T12:52:01.846Z,29.80
2022-11-12T12:54:35.405Z,39.50
2022-11-12T12:57:36.514Z,32.80
2022-11-12T13:00:37.254Z,28.50
2022-11-12T13:03:05.965Z,27.50
2022-11-12T13:08:26.416Z,26.95
2022-11-12T13:10:54.499Z,24.63
2022-11-12T13:13:21.726Z,25.52
2022-11-12T13:15:58.825Z,21.45
2022-11-12T13:18:38.272Z,22.52
2022-11-12T13:21:13.528Z,27.65
2022-11-12T13:24:07.382Z,26.42
2022-11-12T13:27:00.838Z,24.33
2022-11-12T13:29:28.017Z,22.83
2022-11-12T13:32:31.101Z,23.67
2022-11-12T13:35:22.373Z,27.25
2022-11-12T13:38:09.161Z,22.35
2022-11-12T13:40:44.821Z,27.65
2022-11-12T13:43:42.086Z,24.20
2022-11-12T13:46:11.930Z,27.67
2022-11-12T13:49:04.043Z,23.27
2022-11-12T13:51:34.804Z,24.27
2022-11-12T13:54:23.295Z,25.25
2022-11-12T13:56:50.689Z,28.10
2022-11-12T13:59:25.727Z,24.98
2022-11-12T14:01:55.457Z,22.13
2022-11-12T14:04:28.095Z,25.10
2022-11-12T14:07:32.546Z,28.48
2022-11-12T14:10:11.260Z,28.00
2022-11-12T14:13:09.646Z,29.25
2022-11-12T14:18:58.733Z,27.02
2022-11-12T14:21:26.081Z,29.15
2022-11-12T14:23:53.598Z,28.17
2022-11-12T14:26:40.526Z,27.27
2022-11-12T14:29:17.196Z,28.27
2022-11-12T14:31:45.306Z,27.80
2022-11-12T14:34:22.803Z,32.05
2022-11-12T14:36:50.703Z,31.07
2022-11-12T14:39:18.003Z,27.63
2022-11-12T14:41:49.381Z,30.48
2022-11-12T14:44:35.755Z,35.20
2022-11-12T14:47:03.910Z,32.88
2022-11-12T14:49:44.698Z,27.48
2022-11-12T14:52:32.825Z,30.85
2022-11-12T14:55:15.705Z,31.00
2022-11-12T14:57:43.571Z,31.40
2022-11-12T15:00:35.384Z,34.28
2022-11-12T15:03:04.873Z,32.65
2022-11-12T15:05:32.309Z,35.10
2022-11-12T15:08:12.540Z,30.40
2022-11-12T15:10:45.182Z,36.83
2022-11-12T15:13:22.690Z,29.80
2022-11-12T15:16:07.477Z,30.42
2022-11-12T15:18:38.124Z,31.92
2022-11-12T15:21:28.480Z,32.60
2022-11-12T15:24:19.579Z,35.00
2022-11-12T15:26:50.671Z,35.42
2022-11-12T15:29:30.575Z,30.13
2022-11-12T15:32:24.684Z,35.42
2022-11-12T15:34:52.354Z,39.42
2022-11-12T15:37:25.526Z,41.10
2022-11-12T15:39:59.447Z,43.22
2022-11-12T15:42:38.102Z,40.60
2022-11-12T15:45:21.718Z,51.88
2022-11-12T15:47:49.047Z,42.30
2022-11-12T15:50:22.796Z,37.05
2022-11-12T15:52:51.058Z,36.95
2022-11-12T15:55:19.096Z,39.35
2022-11-12T15:57:51.732Z,42.05
2022-11-12T16:00:25.738Z,45.80
2022-11-12T16:03:00.186Z,39.53
2022-11-12T16:05:27.564Z,37.17
2022-11-12T16:07:55.046Z,43.63
2022-11-12T16:10:22.525Z,42.63
2022-11-12T16:12:55.240Z,42.88
2022-11-12T16:15:25.632Z,50.45
2022-11-12T16:17:56.162Z,47.38
2022-11-12T16:20:33.906Z,39.80
2022-11-12T16:23:01.942Z,42.25
2022-11-12T16:25:36.096Z,52.28
2022-11-12T16:28:05.186Z,41.90
2022-11-12T16:30:34.148Z,41.67
2022-11-12T16:33:02.116Z,40.55
2022-11-12T16:35:34.697Z,43.95
2022-11-12T16:38:02.072Z,43.03
2022-11-12T16:40:31.142Z,45.72
2022-11-12T16:42:58.749Z,46.78
2022-11-12T16:45:38.937Z,45.80
2022-11-12T16:48:26.537Z,47.45
2022-11-12T16:50:53.909Z,42.88
2022-11-12T16:53:21.152Z,52.60
2022-11-12T16:55:48.425Z,44.33
2022-11-12T16:58:15.977Z,41.60
2022-11-12T17:00:50.323Z,50.33
2022-11-12T17:03:17.738Z,50.20
2022-11-12T17:05:50.581Z,46.15
2022-11-12T17:08:17.899Z,51.05
2022-11-12T17:10:45.133Z,42.25
2022-11-12T17:13:13.526Z,47.72
2022-11-12T17:18:08.624Z,49.97
2022-11-12T17:20:35.834Z,49.97
2022-11-12T17:23:03.110Z,48.65
2022-11-12T17:25:30.383Z,47.58
2022-11-12T17:27:57.598Z,46.95
2022-11-12T17:30:24.857Z,46.83
2022-11-12T17:32:52.237Z,50.53
2022-11-12T17:35:19.526Z,45.78
2022-11-12T17:37:46.731Z,48.85
2022-11-12T17:40:14.143Z,55.25
2022-11-12T17:42:41.364Z,47.33
2022-11-12T17:45:10.412Z,58.00
2022-11-12T17:47:40.441Z,49.08
2022-11-12T17:50:08.897Z,49.25
2022-11-12T17:52:36.179Z,58.50
2022-11-12T17:55:03.677Z,56.60
2022-11-12T17:57:30.972Z,49.37
2022-11-12T17:59:58.228Z,51.33
2022-11-12T18:02:25.476Z,56.70
2022-11-12T18:04:52.962Z,57.00
2022-11-12T18:07:20.323Z,64.17
2022-11-12T18:09:47.601Z,59.50
2022-11-12T18:12:15.646Z,56.92
2022-11-12T18:14:43.036Z,63.83
2022-11-12T18:17:10.550Z,69.15
2022-11-12T18:19:37.852Z,62.67
2022-11-12T18:22:05.089Z,62.83
2022-11-12T18:24:32.415Z,64.95
2022-11-12T18:26:59.690Z,53.97
2022-11-12T18:29:26.957Z,60.67
2022-11-12T18:31:54.324Z,59.45
2022-11-12T18:34:21.727Z,61.67
2022-11-12T18:36:48.995Z,60.47
2022-11-12T18:39:16.345Z,66.25
2022-11-12T18:41:43.737Z,68.13
2022-11-12T18:44:11.100Z,57.25
2022-11-12T18:46:38.519Z,67.53
2022-11-12T18:49:05.862Z,59.13
2022-11-12T18:51:33.271Z,58.20
2022-11-12T18:54:00.561Z,70.15
2022-11-12T18:56:27.916Z,64.13
2022-11-12T18:58:55.128Z,67.18
2022-11-12T19:01:24.629Z,73.22
2022-11-12T19:03:57.009Z,66.97
2022-11-12T19:06:25.672Z,65.22
2022-11-12T19:11:28.274Z,58.78
2022-11-12T19:13:56.245Z,68.93
2022-11-12T19:16:23.848Z,65.88
2022-11-12T19:18:52.345Z,67.72
2022-11-12T19:23:54.409Z,70.70
2022-11-12T19:26:23.399Z,64.40
2022-11-12T19:28:50.779Z,59.28
2022-11-12T19:31:22.193Z,70.03
2022-11-12T19:33:50.584Z,68.60
2022-11-12T19:38:56.992Z,66.70
2022-11-12T19:41:25.348Z,70.40
2022-11-12T19:43:53.385Z,70.07
2022-11-12T19:46:21.184Z,79.53
2022-11-12T19:48:48.842Z,74.50
2022-11-12T19:51:16.226Z,83.55
2022-11-12T19:53:47.433Z,83.25
2022-11-12T19:56:21.608Z,83.55
2022-11-12T19:58:50.096Z,91.07
2022-11-12T20:01:19.729Z,88.00
2022-11-12T20:03:47.188Z,89.57
2022-11-12T20:06:19.520Z,86.60
2022-11-12T20:08:47.071Z,82.53
2022-11-12T20:11:16.343Z,84.32
2022-11-12T20:13:43.698Z,86.72
2022-11-12T20:16:22.256Z,89.00
2022-11-12T20:18:56.128Z,85.10
2022-11-12T20:21:24.493Z,102.53
2022-11-12T20:26:19.381Z,92.85
2022-11-12T20:28:46.832Z,95.03
2022-11-12T20:31:21.523Z,100.45
2022-11-12T20:33:50.675Z,98.75
2022-11-12T20:36:24.042Z,97.07
2022-11-12T20:38:53.366Z,89.85
2022-11-12T20:41:23.778Z,88.95
2022-11-12T20:43:57.778Z,92.75
2022-11-12T20:46:27.226Z,88.35
2022-11-12T20:48:54.964Z,90.78
2022-11-12T20:51:26.556Z,84.65
2022-11-12T20:54:01.729Z,86.43
2022-11-12T20:56:30.887Z,78.75
2022-11-12T20:58:59.511Z,87.45
2022-11-12T21:01:29.803Z,93.78
2022-11-12T21:03:58.337Z,99.95
2022-11-12T21:06:29.053Z,101.53
2022-11-12T21:08:59.902Z,102.90
2022-11-12T21:11:27.407Z,91.45
2022-11-12T21:13:54.910Z,72.67
2022-11-12T21:16:22.201Z,96.78
2022-11-12T21:18:49.465Z,99.90
2022-11-12T21:21:19.925Z,86.78
2022-11-12T21:23:50.403Z,90.20
2022-11-12T21:26:21.135Z,95.72
2022-11-12T21:28:52.164Z,91.22
2022-11-12T21:31:24.848Z,90.35
2022-11-12T21:34:00.276Z,89.20
2022-11-12T21:36:28.400Z,91.55
2022-11-12T21:38:55.781Z,99.78
2022-11-12T21:41:27.006Z,95.63
2022-11-12T21:43:54.972Z,104.18
2022-11-12T21:46:30.469Z,92.80
2022-11-12T21:48:58.687Z,96.65
2022-11-12T21:51:29.791Z,97.13
2022-11-12T21:54:04.595Z,98.72
2022-11-12T21:56:34.286Z,99.55
2022-11-12T21:59:04.188Z,102.90
2022-11-12T22:01:34.315Z,96.57
2022-11-12T22:04:07.269Z,98.93
2022-11-12T22:06:38.491Z,90.30
2022-11-12T22:09:06.373Z,111.05
2022-11-12T22:11:33.883Z,108.00
2022-11-12T22:14:01.207Z,98.78
2022-11-12T22:16:31.544Z,101.43
2022-11-12T22:19:00.380Z,105.30
2022-11-12T22:21:38.366Z,107.13
2022-11-12T22:24:08.848Z,105.53
2022-11-12T22:26:36.619Z,106.50
2022-11-12T22:29:04.387Z,97.47
2022-11-12T22:31:33.163Z,91.82
2022-11-12T22:34:02.596Z,102.68
2022-11-12T22:36:31.567Z,97.68
2022-11-12T22:38:59.227Z,90.57
2022-11-12T22:41:31.630Z,88.82
2022-11-12T22:44:02.276Z,87.18
2022-11-12T22:46:35.429Z,90.50
2022-11-12T22:49:04.644Z,91.28
2022-11-12T22:51:34.517Z,83.57
2022-11-12T22:54:05.459Z,90.00
2022-11-12T22:56:33.429Z,88.28
2022-11-12T22:59:03.691Z,88.13
2022-11-12T23:01:36.064Z,87.90
2022-11-12T23:04:07.107Z,89.05
2022-11-12T23:06:34.934Z,83.47
2022-11-12T23:09:03.304Z,87.97
2022-11-12T23:11:31.713Z,86.85
2022-11-12T23:16:30.736Z,77.85
2022-11-12T23:18:59.428Z,83.70
2022-11-12T23:21:29.945Z,78.22
2022-11-12T23:23:58.901Z,81.82
2022-11-12T23:26:33.812Z,84.22
2022-11-12T23:29:02.358Z,80.50
2022-11-12T23:34:00.582Z,80.80
2022-11-12T23:36:29.949Z,84.30
2022-11-12T23:38:58.996Z,80.75
2022-11-12T23:41:27.541Z,77.60
2022-11-12T23:43:57.277Z,75.38
2022-11-12T23:46:25.602Z,76.57
2022-11-12T23:48:52.927Z,70.47
2022-11-12T23:51:22.020Z,70.30
2022-11-12T23:53:49.679Z,71.55
2022-11-12T23:56:19.794Z,65.72
2022-11-12T23:58:47.720Z,68.45
